Home > Products > Valid Products > MTR

000
SAUS43 KDDC 270057
MTRP28
METAR KP28 270056Z AUTO 18015G22KT 28/16 A2960 RMK AO1 PK WND
18032/0011 SLP007 T02780161





000
SAUS43 KDDC 262258
MTRP28
METAR KP28 262256Z AUTO 18021G28KT 31/17 A2960 RMK AO1 PK WND
18028/2251 SLP005 T03060172





000
SAUS43 KDDC 261757
MTRP28
METAR KP28 261756Z AUTO 20016G21KT 29/21 A2975 RMK AO1 PK WND
18029/1739 SLP055 T02890206 10306 20233 56010





000
SAUS43 KDDC 261257
MTRP28
METAR KP28 261256Z AUTO VRB04KT 23/22 A2979 RMK AO1 SLP070 T02330217





000
SAUS43 KDDC 261157
MTRP28
METAR KP28 261156Z AUTO 14003KT 23/22 A2979 RMK AO1 SLP069 T02330217
10256 20228 55002





000
SAUS43 KDDC 261058
MTRP28
METAR KP28 261056Z AUTO 16010G18KT 24/22 A2977 RMK AO1 SLP063
T02390217





000
SAUS43 KDDC 260757
MTRP28
METAR KP28 260756Z AUTO 17013G22KT 26/22 A2980 RMK AO1 SLP072
T02560222





000
SAUS43 KDDC 260157
MTRP28
METAR KP28 260156Z AUTO 20004KT 29/11 A2979 RMK AO1 SLP070 T02890106





000
SAUS43 KDDC 252358
MTRP28
METAR KP28 252356Z AUTO 20004KT 33/09 A2979 RMK AO1 SLP069 T03330094
10344 20306 56002





000
SAUS43 KDDC 252257
MTRP28
METAR KP28 252256Z AUTO 20008KT 34/07 A2979 RMK AO1 SLP070 T03390072





000
SAUS43 KDDC 251957
MTRP28
METAR KP28 251956Z AUTO 23012KT 33/13 A2980 RMK AO1 SLP072 T03330128





000
SAUS43 KDDC 251857
MTRP28
METAR KP28 251856Z AUTO 19012G19KT 32/14 A2980 RMK AO1 SLP074
T03170144





000
SAUS43 KDDC 251358
MTRP28
METAR KP28 251356Z AUTO 16009KT 22/20 A2982 RMK AO1 SLP083 T02220200





000
SAUS43 KDDC 251258
MTRP28
METAR KP28 251256Z AUTO 14009G17KT 20/18 A2981 RMK AO1 SLP083
T02000183





000
SAUS43 KDDC 251158
MTRP28
METAR KP28 251156Z AUTO 14011KT 19/17 A2980 RMK AO1 SLP077 70001
T01890172 10206 20178 55006





000
SAUS43 KDDC 250658
MTRP28
METAR KP28 250656Z AUTO 08011KT 20/17 A2980 RMK AO1 SLP077 T02000167





000
SAUS43 KDDC 250557
MTRP28
METAR KP28 250556Z AUTO 08008KT 19/15 A2983 RMK AO1 SLP089 60001
T01890150 10267 20189 403000189 50006





000
SAUS43 KDDC 250458
MTRP28
METAR KP28 250456Z AUTO 07013KT 19/14 A2985 RMK AO1 SLP095 T01890144





000
SAUS43 KDDC 250058
MTRP28
METAR KP28 250056Z AUTO 11011G22KT 23/18 A2971 RMK AO1 PK WND
13026/0023 PRESFR SLP047 P0001 T02330183





000
SAUS43 KDDC 242358
MTRP28
METAR KP28 242356Z AUTO 13017G27KT 27/17 A2975 RMK AO1 PK WND
12027/2351 SLP058 T02670167 10300 20244 58024





000
SAUS43 KDDC 241857
MTRP28
METAR KP28 241856Z AUTO 13010G18KT 27/20 A2985 RMK AO1 SLP092
T02720200





000
SAUS43 KDDC 241757
MTRP28
METAR KP28 241756Z AUTO 10010G19KT 24/19 A2988 RMK AO1 SLP104
T02440189 10250 20194 58009





000
SAUS43 KDDC 241457
MTRP28
METAR KP28 241456Z AUTO 08012KT 22/19 A2991 RMK AO1 SLP114 T02170189
51024





000
SAUS43 KDDC 241258
MTRP28
METAR KP28 241256Z AUTO 06010KT 22/19 A2988 RMK AO1 SLP106 T02170194





000
SAUS43 KDDC 241158
MTRP28
METAR KP28 241156Z AUTO 11004KT 21/19 A2983 RMK AO1 SLP089 T02110194
10222 20206 53025





000
SAUS43 KDDC 241057
MTRP28
METAR KP28 241056Z AUTO 15005KT 21/19 A2979 RMK AO1 SLP071 T02110194





000
SAUS43 KDDC 240658
MTRP28
METAR KP28 240656Z AUTO 18011KT 22/19 A2978 RMK AO1 SLP071 T02170194





    US Dept of Commerce
    National Oceanic and Atmospheric Administration
    National Weather Service
    1325 East West Highway
    Silver Spring, MD 20910
    Page Author: NWS Internet Services Team
Disclaimer
Information Quality
Credits
Glossary
Privacy Policy
Freedom of Information Act (FOIA)
About Us
Career Opportunities